CJTTY CYYC-CYVR
Flight info
| Callsign | CJTTY |
|---|---|
| Flight time | N/A |
| Altitude | 43000 |
| Route | STAMP2/35L BOTAG Q894 BOOTH CANUC6 |
| Aircraft | HDJT/L-SABDGRWY/H |
Departure
| Time | 2026-05-05 22:33 |
|---|---|
| Airport | Calgary International Airport (CYYC) |
Arrival
| Time | N/A |
|---|---|
| Airport | Vancouver International Airport (CYVR) |
| Time | Latitude | Longitude | Altitude | Speed | Heading |
|---|---|---|---|---|---|
| 2026-05-05 22:01 | 51.13172 | -114.02645 | 3554 ft | 0 kts | 0° |
| 2026-05-05 22:24 | 51.13173 | -114.02644 | 3554 ft | 0 kts | 34° |
| 2026-05-05 22:24 | 51.13178 | -114.02628 | 3554 ft | 17 kts | 77° |
| 2026-05-05 22:24 | 51.13102 | -114.02575 | 3554 ft | 12 kts | 172° |
| 2026-05-05 22:24 | 51.13033 | -114.02566 | 3554 ft | 8 kts | 166° |
| 2026-05-05 22:25 | 51.12997 | -114.02532 | 3554 ft | 4 kts | 113° |
| 2026-05-05 22:25 | 51.12994 | -114.02510 | 3554 ft | 0 kts | 101° |
| 2026-05-05 22:26 | 51.12993 | -114.02504 | 3554 ft | 2 kts | 101° |
| 2026-05-05 22:26 | 51.12984 | -114.02437 | 3554 ft | 15 kts | 130° |
| 2026-05-05 22:26 | 51.12900 | -114.02418 | 3554 ft | 12 kts | 179° |
| 2026-05-05 22:26 | 51.12850 | -114.02418 | 3554 ft | 11 kts | 181° |
| 2026-05-05 22:27 | 51.12778 | -114.02417 | 3553 ft | 11 kts | 180° |
| 2026-05-05 22:27 | 51.12678 | -114.02418 | 3553 ft | 17 kts | 180° |
| 2026-05-05 22:27 | 51.12537 | -114.02418 | 3554 ft | 23 kts | 180° |
| 2026-05-05 22:27 | 51.12363 | -114.02418 | 3554 ft | 25 kts | 180° |
| 2026-05-05 22:28 | 51.12206 | -114.02418 | 3556 ft | 20 kts | 178° |
| 2026-05-05 22:28 | 51.12070 | -114.02419 | 3554 ft | 19 kts | 180° |
| 2026-05-05 22:28 | 51.11926 | -114.02419 | 3554 ft | 23 kts | 180° |
| 2026-05-05 22:28 | 51.11749 | -114.02419 | 3554 ft | 28 kts | 180° |
| 2026-05-05 22:29 | 51.11540 | -114.02419 | 3553 ft | 32 kts | 180° |
| 2026-05-05 22:29 | 51.11328 | -114.02419 | 3554 ft | 29 kts | 179° |
| 2026-05-05 22:29 | 51.11129 | -114.02419 | 3554 ft | 28 kts | 180° |
| 2026-05-05 22:29 | 51.10935 | -114.02420 | 3554 ft | 28 kts | 179° |
| 2026-05-05 22:30 | 51.10742 | -114.02438 | 3554 ft | 28 kts | 195° |
| 2026-05-05 22:30 | 51.10556 | -114.02527 | 3554 ft | 28 kts | 197° |
| 2026-05-05 22:30 | 51.10413 | -114.02553 | 3552 ft | 13 kts | 115° |
| 2026-05-05 22:30 | 51.10407 | -114.02406 | 3552 ft | 14 kts | 90° |
| 2026-05-05 22:31 | 51.10407 | -114.02244 | 3551 ft | 16 kts | 89° |
| 2026-05-05 22:31 | 51.10453 | -114.02139 | 3551 ft | 11 kts | 1° |
| 2026-05-05 22:31 | 51.10483 | -114.02138 | 3551 ft | 0 kts | 1° |
| 2026-05-05 22:32 | 51.10650 | -114.02136 | 3553 ft | 57 kts | 359° |
| 2026-05-05 22:32 | 51.11259 | -114.02138 | 3554 ft | 115 kts | 0° |
| 2026-05-05 22:32 | 51.12187 | -114.02136 | 3658 ft | 145 kts | 360° |
| 2026-05-05 22:32 | 51.13213 | -114.02163 | 4095 ft | 146 kts | 0° |
| 2026-05-05 22:33 | 51.14172 | -114.02196 | 4773 ft | 129 kts | 358° |
| 2026-05-05 22:33 | 51.15078 | -114.02187 | 5054 ft | 136 kts | 358° |
| 2026-05-05 22:33 | 51.16019 | -114.02368 | 5520 ft | 137 kts | 347° |
| 2026-05-05 22:33 | 51.16778 | -114.03303 | 5954 ft | 147 kts | 306° |
| 2026-05-05 22:34 | 51.17054 | -114.04899 | 6418 ft | 158 kts | 272° |
| 2026-05-05 22:34 | 51.16761 | -114.06621 | 6863 ft | 162 kts | 258° |
| 2026-05-05 22:34 | 51.16441 | -114.08356 | 7251 ft | 167 kts | 260° |
| 2026-05-05 22:34 | 51.16128 | -114.10190 | 7571 ft | 175 kts | 260° |
| 2026-05-05 22:35 | 51.15793 | -114.12081 | 7919 ft | 179 kts | 260° |
| 2026-05-05 22:35 | 51.15458 | -114.13970 | 8294 ft | 181 kts | 260° |
| 2026-05-05 22:35 | 51.15113 | -114.15899 | 8687 ft | 181 kts | 260° |
| 2026-05-05 22:35 | 51.14771 | -114.17827 | 9070 ft | 181 kts | 260° |
| 2026-05-05 22:36 | 51.14429 | -114.19755 | 9463 ft | 181 kts | 260° |
| 2026-05-05 22:36 | 51.14078 | -114.21750 | 9593 ft | 193 kts | 259° |
| 2026-05-05 22:36 | 51.13703 | -114.23855 | 9702 ft | 201 kts | 259° |
| 2026-05-05 22:36 | 51.13308 | -114.26072 | 9874 ft | 214 kts | 259° |
| 2026-05-05 22:37 | 51.12894 | -114.28386 | 10098 ft | 220 kts | 259° |
| 2026-05-05 22:37 | 51.12470 | -114.30754 | 10156 ft | 231 kts | 258° |
| 2026-05-05 22:37 | 51.12019 | -114.33262 | 10183 ft | 239 kts | 258° |
| 2026-05-05 22:37 | 51.11557 | -114.35837 | 10221 ft | 244 kts | 258° |
| 2026-05-05 22:38 | 51.11087 | -114.38443 | 10276 ft | 246 kts | 258° |
| 2026-05-05 22:38 | 51.10616 | -114.41061 | 10312 ft | 247 kts | 258° |
| 2026-05-05 22:38 | 51.10138 | -114.43687 | 10353 ft | 248 kts | 258° |
| 2026-05-05 22:38 | 51.09661 | -114.46343 | 10412 ft | 253 kts | 258° |
| 2026-05-05 22:39 | 51.09155 | -114.49195 | 10341 ft | 277 kts | 258° |
| 2026-05-05 22:39 | 51.08609 | -114.52213 | 10430 ft | 298 kts | 257° |
| 2026-05-05 22:39 | 51.08021 | -114.55387 | 10654 ft | 298 kts | 257° |
| 2026-05-05 22:39 | 51.07443 | -114.58547 | 11045 ft | 298 kts | 257° |
| 2026-05-05 22:40 | 51.06878 | -114.61722 | 11436 ft | 299 kts | 260° |
| 2026-05-05 22:40 | 51.06394 | -114.64923 | 11837 ft | 298 kts | 261° |
| 2026-05-05 22:40 | 51.05905 | -114.68072 | 12220 ft | 297 kts | 261° |
| 2026-05-05 22:40 | 51.05388 | -114.71313 | 12613 ft | 303 kts | 261° |
| 2026-05-05 22:41 | 51.04865 | -114.74584 | 13090 ft | 305 kts | 261° |
| 2026-05-05 22:41 | 51.04350 | -114.77875 | 13622 ft | 307 kts | 262° |
| 2026-05-05 22:41 | 51.03844 | -114.81106 | 14117 ft | 304 kts | 262° |
| 2026-05-05 22:41 | 51.03311 | -114.84360 | 14565 ft | 305 kts | 262° |
| 2026-05-05 22:42 | 51.02778 | -114.87658 | 15019 ft | 312 kts | 262° |
| 2026-05-05 22:42 | 51.02244 | -114.90998 | 15520 ft | 313 kts | 263° |
| 2026-05-05 22:42 | 51.01696 | -114.94372 | 15954 ft | 318 kts | 263° |
| 2026-05-05 22:42 | 51.01140 | -114.97788 | 16443 ft | 321 kts | 263° |
| 2026-05-05 22:43 | 51.00581 | -115.01226 | 16928 ft | 322 kts | 264° |
| 2026-05-05 22:43 | 51.00030 | -115.04635 | 17411 ft | 325 kts | 264° |
| 2026-05-05 22:43 | 50.99466 | -115.08125 | 17906 ft | 328 kts | 264° |
| 2026-05-05 22:43 | 50.98884 | -115.11631 | 18360 ft | 328 kts | 264° |
| 2026-05-05 22:44 | 50.98305 | -115.15118 | 18769 ft | 326 kts | 265° |
| 2026-05-05 22:44 | 50.97740 | -115.18595 | 19186 ft | 324 kts | 265° |
| 2026-05-05 22:44 | 50.97186 | -115.22051 | 19623 ft | 323 kts | 265° |
| 2026-05-05 22:44 | 50.96611 | -115.25508 | 20054 ft | 324 kts | 265° |
| 2026-05-05 22:45 | 50.96041 | -115.28984 | 20532 ft | 327 kts | 264° |
| 2026-05-05 22:45 | 50.95434 | -115.32481 | 20916 ft | 330 kts | 264° |
| 2026-05-05 22:45 | 50.94867 | -115.35965 | 21288 ft | 332 kts | 265° |
| 2026-05-05 22:45 | 50.94297 | -115.39532 | 21735 ft | 335 kts | 265° |
| 2026-05-05 22:46 | 50.93690 | -115.43118 | 22151 ft | 338 kts | 264° |
| 2026-05-05 22:46 | 50.93077 | -115.46722 | 22579 ft | 339 kts | 265° |
| 2026-05-05 22:46 | 50.92473 | -115.50345 | 23026 ft | 340 kts | 265° |
| 2026-05-05 22:46 | 50.91877 | -115.53984 | 23517 ft | 342 kts | 265° |
| 2026-05-05 22:47 | 50.91263 | -115.57631 | 23924 ft | 344 kts | 264° |
| 2026-05-05 22:47 | 50.90633 | -115.61302 | 24203 ft | 348 kts | 265° |
| 2026-05-05 22:47 | 50.90012 | -115.65032 | 24418 ft | 353 kts | 265° |
| 2026-05-05 22:47 | 50.89386 | -115.68759 | 24619 ft | 357 kts | 264° |
| 2026-05-05 22:48 | 50.88733 | -115.72569 | 24881 ft | 360 kts | 264° |
| 2026-05-05 22:48 | 50.88132 | -115.76117 | 25117 ft | 361 kts | 265° |
| 2026-05-05 22:48 | 50.87466 | -115.80060 | 25429 ft | 363 kts | 265° |
| 2026-05-05 22:48 | 50.86805 | -115.83932 | 25731 ft | 365 kts | 264° |
| 2026-05-05 22:49 | 50.86138 | -115.87812 | 25986 ft | 366 kts | 264° |
| 2026-05-05 22:49 | 50.85471 | -115.91706 | 26181 ft | 368 kts | 264° |
| 2026-05-05 22:49 | 50.84785 | -115.95555 | 26416 ft | 369 kts | 264° |
| 2026-05-05 22:49 | 50.84138 | -115.99474 | 26703 ft | 368 kts | 265° |
| 2026-05-05 22:50 | 50.83483 | -116.03402 | 26984 ft | 370 kts | 265° |
| 2026-05-05 22:50 | 50.82787 | -116.07330 | 27279 ft | 371 kts | 264° |
| 2026-05-05 22:50 | 50.82089 | -116.11266 | 27588 ft | 372 kts | 265° |
| 2026-05-05 22:50 | 50.81419 | -116.15213 | 27890 ft | 372 kts | 265° |
| 2026-05-05 22:51 | 50.80739 | -116.19178 | 28171 ft | 375 kts | 265° |
| 2026-05-05 22:51 | 50.80034 | -116.23154 | 28444 ft | 376 kts | 264° |
| 2026-05-05 22:51 | 50.79342 | -116.27122 | 28446 ft | 383 kts | 265° |
| 2026-05-05 22:52 | 50.77899 | -116.35387 | 28481 ft | 395 kts | 264° |
| 2026-05-05 22:52 | 50.77156 | -116.39564 | 28652 ft | 395 kts | 264° |
| 2026-05-05 22:52 | 50.76417 | -116.43751 | 28819 ft | 396 kts | 264° |
| 2026-05-05 22:52 | 50.75667 | -116.47955 | 28961 ft | 400 kts | 263° |
| 2026-05-05 22:53 | 50.74845 | -116.52158 | 29161 ft | 401 kts | 262° |
| 2026-05-05 22:53 | 50.74021 | -116.56356 | 29380 ft | 401 kts | 263° |
| 2026-05-05 22:53 | 50.73224 | -116.60522 | 29478 ft | 403 kts | 263° |
| 2026-05-05 22:53 | 50.72414 | -116.64770 | 29624 ft | 405 kts | 263° |
| 2026-05-05 22:54 | 50.71584 | -116.69022 | 29753 ft | 406 kts | 263° |
| 2026-05-05 22:54 | 50.69918 | -116.77542 | 29800 ft | 407 kts | 263° |
| 2026-05-05 22:54 | 50.69089 | -116.81816 | 29913 ft | 407 kts | 263° |
| 2026-05-05 22:55 | 50.68239 | -116.86083 | 30046 ft | 408 kts | 263° |
| 2026-05-05 22:55 | 50.66841 | -116.93188 | 30057 ft | 406 kts | 263° |
| 2026-05-05 22:56 | 50.65485 | -117.00110 | 30094 ft | 410 kts | 263° |
| 2026-05-05 22:56 | 50.63761 | -117.08690 | 30106 ft | 410 kts | 263° |
| 2026-05-05 22:56 | 50.62906 | -117.12984 | 29992 ft | 408 kts | 263° |
| 2026-05-05 22:57 | 50.62063 | -117.17189 | 28905 ft | 404 kts | 263° |
| 2026-05-05 22:57 | 50.61249 | -117.21337 | 28993 ft | 392 kts | 263° |
| 2026-05-05 22:57 | 50.60449 | -117.25376 | 29041 ft | 394 kts | 263° |
| 2026-05-05 22:58 | 50.58759 | -117.33747 | 29002 ft | 408 kts | 262° |
| 2026-05-05 22:58 | 50.57038 | -117.42248 | 28999 ft | 408 kts | 263° |
| 2026-05-05 22:59 | 50.55312 | -117.50781 | 28997 ft | 410 kts | 262° |
| 2026-05-05 22:59 | 50.53590 | -117.59249 | 28985 ft | 409 kts | 262° |
| 2026-05-05 23:00 | 50.50975 | -117.72011 | 28980 ft | 407 kts | 262° |
| 2026-05-05 23:00 | 50.49225 | -117.80554 | 28979 ft | 414 kts | 262° |
| 2026-05-05 23:01 | 50.47440 | -117.89130 | 28962 ft | 412 kts | 262° |
| 2026-05-05 23:01 | 50.45688 | -117.97631 | 28967 ft | 414 kts | 262° |
| 2026-05-05 23:02 | 50.43885 | -118.06221 | 28969 ft | 412 kts | 262° |
| 2026-05-05 23:02 | 50.42103 | -118.14799 | 28954 ft | 415 kts | 261° |
| 2026-05-05 23:03 | 50.40285 | -118.23397 | 28962 ft | 417 kts | 262° |
| 2026-05-05 23:03 | 50.38475 | -118.31999 | 28962 ft | 416 kts | 262° |
| 2026-05-05 23:04 | 50.36659 | -118.40548 | 28956 ft | 417 kts | 261° |
| 2026-05-05 23:04 | 50.34831 | -118.49128 | 28946 ft | 415 kts | 261° |
| 2026-05-05 23:05 | 50.32994 | -118.57746 | 28951 ft | 418 kts | 261° |
| 2026-05-05 23:05 | 50.31488 | -118.64732 | 28938 ft | 418 kts | 260° |
| 2026-05-05 23:06 | 50.29648 | -118.73297 | 28951 ft | 418 kts | 261° |
| 2026-05-05 23:06 | 50.27793 | -118.81854 | 28941 ft | 415 kts | 261° |
| 2026-05-05 23:07 | 50.25928 | -118.90463 | 28941 ft | 420 kts | 260° |
| 2026-05-05 23:07 | 50.24042 | -118.99081 | 28946 ft | 419 kts | 260° |
| 2026-05-05 23:08 | 50.22166 | -119.07649 | 28934 ft | 418 kts | 260° |
| 2026-05-05 23:08 | 50.20275 | -119.16246 | 28930 ft | 419 kts | 260° |
| 2026-05-05 23:09 | 50.18377 | -119.24846 | 28936 ft | 419 kts | 260° |
| 2026-05-05 23:09 | 50.16469 | -119.33435 | 28924 ft | 419 kts | 260° |
| 2026-05-05 23:10 | 50.14572 | -119.41952 | 28928 ft | 419 kts | 259° |
| 2026-05-05 23:10 | 50.12655 | -119.50538 | 28914 ft | 419 kts | 259° |
| 2026-05-05 23:11 | 50.10731 | -119.59118 | 28923 ft | 420 kts | 259° |
| 2026-05-05 23:11 | 50.08792 | -119.67696 | 28920 ft | 420 kts | 259° |
| 2026-05-05 23:12 | 50.06864 | -119.76212 | 28921 ft | 420 kts | 259° |
| 2026-05-05 23:12 | 50.04917 | -119.84775 | 28924 ft | 420 kts | 259° |
| 2026-05-05 23:13 | 50.02965 | -119.93338 | 28925 ft | 420 kts | 258° |
| 2026-05-05 23:13 | 50.01005 | -120.01884 | 28923 ft | 420 kts | 258° |
| 2026-05-05 23:14 | 49.99040 | -120.10433 | 28918 ft | 420 kts | 258° |
| 2026-05-05 23:14 | 49.97079 | -120.18906 | 28924 ft | 419 kts | 258° |
| 2026-05-05 23:15 | 49.95106 | -120.27434 | 28919 ft | 420 kts | 258° |
| 2026-05-05 23:15 | 49.93120 | -120.35957 | 28911 ft | 420 kts | 258° |
| 2026-05-05 23:16 | 49.91128 | -120.44472 | 28910 ft | 420 kts | 257° |
| 2026-05-05 23:16 | 49.89147 | -120.52922 | 28899 ft | 420 kts | 257° |
| 2026-05-05 23:17 | 49.87145 | -120.61415 | 28898 ft | 419 kts | 257° |
| 2026-05-05 23:17 | 49.85140 | -120.69899 | 28894 ft | 419 kts | 257° |
| 2026-05-05 23:18 | 49.83124 | -120.78374 | 28892 ft | 420 kts | 257° |
| 2026-05-05 23:18 | 49.81126 | -120.86782 | 28891 ft | 418 kts | 257° |
| 2026-05-05 23:19 | 49.79098 | -120.95229 | 28861 ft | 415 kts | 257° |
| 2026-05-05 23:19 | 49.78108 | -120.99327 | 27340 ft | 405 kts | 256° |
| 2026-05-05 23:19 | 49.77157 | -121.03263 | 25198 ft | 380 kts | 257° |
| 2026-05-05 23:20 | 49.76240 | -121.07123 | 23868 ft | 388 kts | 257° |
| 2026-05-05 23:20 | 49.75297 | -121.11099 | 22922 ft | 394 kts | 256° |